Time;durP1;ratioP1;P1;durP2;ratioP2;P2;SDS_P1;SDS_P2;PMS_P1;PMS_P2;Temp;Humidity;BMP_temperature;BMP_pressure;BME280_temperature;BME280_humidity;BME280_pressure;Samples;Min_cycle;Max_cycle;Signal;HPM_P1;HPM_P2
2022/04/19 00:00:56;;;;;;;2.97;2.05;;;;;;;4.54;76.71;98496.34;5033985;28;20030;-70
2022/04/19 00:03:22;;;;;;;3.53;2.05;;;;;;;4.53;77.85;98510.78;5034369;28;20028;-70
2022/04/19 00:05:47;;;;;;;3.72;2.72;;;;;;;4.51;77.48;98504.75;5031332;28;20048;-70
2022/04/19 00:08:14;;;;;;;4.78;2.53;;;;;;;4.34;78.28;98492.38;5035947;28;20048;-71
2022/04/19 00:10:40;;;;;;;5.80;2.45;;;;;;;4.27;78.50;98496.75;5033025;28;20087;-70
2022/04/19 00:13:07;;;;;;;4.28;2.22;;;;;;;4.33;78.58;98496.09;5031585;28;20018;-71
2022/04/19 00:15:32;;;;;;;3.95;2.50;;;;;;;4.22;78.68;98488.38;5013643;28;20092;-70
2022/04/19 00:17:59;;;;;;;2.72;1.83;;;;;;;4.22;78.83;98504.47;5013940;28;20029;-71
2022/04/19 00:20:25;;;;;;;3.60;2.03;;;;;;;4.08;79.55;98495.28;4995303;28;20454;-72
2022/04/19 00:22:52;;;;;;;4.85;2.20;;;;;;;4.00;80.10;98485.41;4988326;28;20026;-70
2022/04/19 00:25:18;;;;;;;2.85;1.83;;;;;;;3.87;80.11;98482.44;5008192;28;20037;-70
2022/04/19 00:27:43;;;;;;;4.70;1.90;;;;;;;3.80;80.53;98484.09;5007423;28;20030;-70
2022/04/19 00:30:10;;;;;;;3.85;2.25;;;;;;;3.72;81.74;98480.44;5013949;28;20030;-70
2022/04/19 00:32:36;;;;;;;4.80;2.22;;;;;;;3.79;81.83;98480.59;5012603;28;20136;-70
2022/04/19 00:35:03;;;;;;;4.50;2.70;;;;;;;3.87;81.78;98477.06;5004950;28;20121;-69
2022/04/19 00:37:29;;;;;;;6.57;3.10;;;;;;;3.89;82.31;98480.44;5013370;28;20025;-69
2022/04/19 00:39:57;;;;;;;3.75;2.35;;;;;;;3.93;81.16;98476.41;5006540;28;20041;-69
2022/04/19 00:42:26;;;;;;;5.95;2.90;;;;;;;3.96;81.51;98481.44;5005243;28;20029;-70
2022/04/19 00:44:51;;;;;;;3.22;1.90;;;;;;;3.94;80.67;98473.56;5010876;28;20030;-69
2022/04/19 00:47:16;;;;;;;3.55;2.42;;;;;;;4.00;81.31;98464.00;5008821;28;20034;-70
2022/04/19 00:49:42;;;;;;;4.72;2.28;;;;;;;3.87;80.84;98474.41;5003618;28;20036;-70
2022/04/19 00:52:09;;;;;;;4.63;2.47;;;;;;;3.98;81.66;98468.69;5009550;28;20436;-70
2022/04/19 00:54:35;;;;;;;3.33;2.30;;;;;;;3.88;82.56;98462.72;5009203;28;20049;-70
2022/04/19 00:57:01;;;;;;;3.83;2.20;;;;;;;3.82;82.87;98466.03;5008843;28;20033;-70
2022/04/19 00:59:26;;;;;;;3.13;2.28;;;;;;;3.62;83.83;98455.69;5013282;28;20026;-70
2022/04/19 01:01:52;;;;;;;7.55;2.63;;;;;;;3.57;82.65;98451.84;5010217;28;20067;-70
2022/04/19 01:04:18;;;;;;;5.35;2.78;;;;;;;3.53;84.18;98466.56;5006838;28;20092;-70
2022/04/19 01:06:44;;;;;;;5.90;2.38;;;;;;;3.51;84.09;98454.19;5000657;28;20089;-70
2022/04/19 01:09:09;;;;;;;4.43;2.38;;;;;;;3.48;84.47;98449.19;5014165;28;20034;-70
2022/04/19 01:14:20;;;;;;;4.90;2.50;;;;;;;3.65;83.99;98449.16;5006571;28;20041;-70
2022/04/19 01:16:45;;;;;;;4.85;2.50;;;;;;;3.69;83.66;98451.34;5010381;28;20041;-69
2022/04/19 01:19:15;;;;;;;3.72;2.17;;;;;;;3.81;82.79;98440.28;5012866;28;20026;-70
2022/04/19 01:21:44;;;;;;;6.43;2.60;;;;;;;3.88;83.08;98435.94;5010860;28;20018;-70
2022/04/19 01:24:16;;;;;;;2.67;1.83;;;;;;;3.95;82.43;98434.25;5005576;28;20502;-70
2022/04/19 01:26:43;;;;;;;2.72;1.92;;;;;;;3.90;81.89;98434.78;4992479;28;20060;-70
2022/04/19 01:29:12;;;;;;;2.90;1.90;;;;;;;3.86;81.59;98429.91;5008587;28;20510;-71
2022/04/19 01:31:39;;;;;;;4.80;2.00;;;;;;;3.69;81.24;98431.75;5008569;28;20164;-70
2022/04/19 01:34:05;;;;;;;2.78;1.88;;;;;;;3.47;81.94;98427.94;4998974;28;20050;-70
2022/04/19 01:36:33;;;;;;;3.47;2.25;;;;;;;3.32;83.52;98421.59;4989513;28;20026;-70
2022/04/19 01:38:59;;;;;;;5.63;2.00;;;;;;;3.25;84.22;98424.09;5005952;28;20034;-70
2022/04/19 01:41:25;;;;;;;3.42;1.92;;;;;;;3.28;84.91;98427.28;5010425;28;20037;-70
2022/04/19 01:43:51;;;;;;;3.50;1.77;;;;;;;3.32;84.90;98437.63;5008496;28;20551;-70
2022/04/19 01:46:17;;;;;;;5.70;2.10;;;;;;;3.21;85.03;98436.94;5011374;28;20361;-70
2022/04/19 01:48:42;;;;;;;3.03;2.00;;;;;;;3.08;85.22;98434.75;4997293;28;20029;-71
2022/04/19 01:51:08;;;;;;;3.13;2.00;;;;;;;3.01;84.20;98430.22;5048840;23;20565;-65
2022/04/19 01:53:33;;;;;;;3.58;1.77;;;;;;;2.98;84.58;98430.56;5010238;28;20098;-65
2022/04/19 01:55:58;;;;;;;4.95;2.17;;;;;;;2.88;85.15;98427.19;5010947;28;20036;-65
2022/04/19 01:58:24;;;;;;;3.65;2.05;;;;;;;2.64;85.70;98400.25;5015559;28;20033;-65
2022/04/19 02:00:49;;;;;;;3.88;1.90;;;;;;;2.76;86.48;98430.19;5012152;28;20515;-65
2022/04/19 02:03:14;;;;;;;4.88;2.20;;;;;;;2.67;86.81;98420.47;5010349;28;20527;-65
2022/04/19 02:05:40;;;;;;;3.90;2.05;;;;;;;2.83;86.94;98428.53;5005086;28;20053;-65
2022/04/19 02:08:06;;;;;;;3.05;2.00;;;;;;;2.89;86.14;98428.88;5011802;28;20021;-65
2022/04/19 02:10:31;;;;;;;6.65;2.60;;;;;;;2.84;87.01;98432.03;5013124;28;20080;-65
2022/04/19 02:12:56;;;;;;;4.97;2.38;;;;;;;2.78;87.74;98422.84;5014882;28;20100;-65
2022/04/19 02:15:22;;;;;;;5.57;2.22;;;;;;;2.68;88.38;98435.50;5007279;28;20030;-66
2022/04/19 02:17:48;;;;;;;9.50;2.65;;;;;;;2.62;89.15;98418.31;5014103;28;20022;-66
2022/04/19 02:20:16;;;;;;;4.80;2.65;;;;;;;2.60;89.28;98424.81;5013525;28;20030;-65
2022/04/19 02:22:41;;;;;;;5.57;2.40;;;;;;;2.56;89.21;98426.94;5014392;28;20057;-66
2022/04/19 02:25:09;;;;;;;4.25;2.47;;;;;;;2.55;89.26;98424.44;5012940;28;20121;-65
2022/04/19 02:27:34;;;;;;;6.93;2.40;;;;;;;2.52;89.70;98416.78;5010501;28;20021;-65
2022/04/19 02:30:04;;;;;;;2.42;1.80;;;;;;;2.49;90.04;98417.94;5014037;28;20057;-65
2022/04/19 02:32:31;;;;;;;5.50;2.58;;;;;;;2.45;89.97;98405.88;5009113;28;20511;-65
2022/04/19 02:34:57;;;;;;;3.60;2.47;;;;;;;2.45;89.83;98415.72;5009587;28;20033;-66
2022/04/19 02:37:23;;;;;;;5.50;2.50;;;;;;;2.48;89.69;98420.75;5013686;28;20085;-66
2022/04/19 02:39:49;;;;;;;3.28;2.28;;;;;;;2.44;89.86;98414.03;5012774;28;20053;-66
2022/04/19 02:42:15;;;;;;;4.35;2.17;;;;;;;2.26;90.89;98382.13;5013052;28;20039;-66
2022/04/19 02:44:40;;;;;;;3.22;2.28;;;;;;;2.30;90.33;98386.97;5010118;28;20037;-66
2022/04/19 02:47:06;;;;;;;3.72;2.28;;;;;;;2.41;90.84;98412.53;5012798;28;20034;-65
2022/04/19 02:49:34;;;;;;;3.90;2.20;;;;;;;2.45;90.10;98410.38;5014784;28;20433;-65
2022/04/19 02:51:59;;;;;;;3.42;2.05;;;;;;;2.48;89.47;98402.88;5012484;28;20091;-65
2022/04/19 02:54:25;;;;;;;2.97;2.08;;;;;;;2.38;89.70;98399.50;5011717;28;20601;-66
2022/04/19 02:56:50;;;;;;;4.90;2.28;;;;;;;2.25;90.16;98367.94;5012261;28;20561;-65
2022/04/19 02:59:15;;;;;;;4.95;2.58;;;;;;;2.53;89.47;98400.56;5013630;28;20480;-66
2022/04/19 03:01:42;;;;;;;3.40;2.17;;;;;;;2.48;89.49;98404.72;5013778;28;20025;-66
2022/04/19 03:04:07;;;;;;;5.53;1.98;;;;;;;2.47;90.23;98408.41;5005398;28;20372;-66
2022/04/19 03:06:32;;;;;;;6.03;2.10;;;;;;;2.49;88.93;98403.72;5012507;28;20044;-66
2022/04/19 03:08:58;;;;;;;2.90;2.20;;;;;;;2.58;88.35;98400.09;5014353;28;20037;-66
2022/04/19 03:11:23;;;;;;;5.07;2.55;;;;;;;2.63;87.99;98403.09;5013499;28;20483;-66
2022/04/19 03:13:48;;;;;;;3.65;2.92;;;;;;;2.70;87.62;98398.78;5005104;28;20056;-66
2022/04/19 03:16:14;;;;;;;4.93;2.88;;;;;;;2.65;88.06;98398.44;5014329;28;20502;-65
2022/04/19 03:18:43;;;;;;;5.53;2.75;;;;;;;2.57;87.90;98395.75;5013548;28;20025;-66
2022/04/19 03:21:12;;;;;;;3.42;2.45;;;;;;;2.37;88.05;98382.66;5007755;28;20069;-66
2022/04/19 03:29:07;;;;;;;4.30;2.70;;;;;;;2.24;89.46;98390.28;4994687;28;20029;-66
2022/04/19 03:31:33;;;;;;;5.68;3.05;;;;;;;2.14;90.53;98393.06;5003426;28;20029;-66
2022/04/19 03:33:59;;;;;;;6.05;2.63;;;;;;;2.02;90.75;98390.84;5013935;28;20136;-66
2022/04/19 03:36:24;;;;;;;3.83;2.72;;;;;;;1.94;91.74;98370.31;5011746;28;20060;-66
2022/04/19 03:38:50;;;;;;;4.25;2.42;;;;;;;1.92;89.16;98394.47;5013737;28;20029;-66
2022/04/19 03:41:15;;;;;;;5.40;2.67;;;;;;;1.87;89.96;98395.94;5010204;28;20041;-66
2022/04/19 03:43:41;;;;;;;3.05;1.75;;;;;;;1.49;90.31;98344.72;5007183;28;20439;-70
2022/04/19 03:46:08;;;;;;;4.38;2.28;;;;;;;1.58;91.57;98380.28;5009614;28;20123;-73
2022/04/19 03:48:34;;;;;;;2.97;2.03;;;;;;;1.60;91.96;98373.78;5013167;28;20030;-73
2022/04/19 03:50:59;;;;;;;3.45;2.30;;;;;;;1.59;92.92;98392.59;5009957;28;20080;-72
2022/04/19 03:53:25;;;;;;;3.17;2.22;;;;;;;1.54;92.79;98383.22;5013677;28;20029;-73
2022/04/19 03:55:50;;;;;;;4.25;2.35;;;;;;;1.60;92.54;98384.47;5011184;28;20026;-73
2022/04/19 03:58:15;;;;;;;4.18;2.58;;;;;;;1.52;92.51;98392.41;5012347;28;20041;-71
2022/04/19 04:00:41;;;;;;;3.95;2.17;;;;;;;1.39;92.22;98395.47;5008994;28;20022;-74
2022/04/19 04:03:06;;;;;;;3.63;2.35;;;;;;;1.32;93.40;98373.09;5010518;28;20110;-75
2022/04/19 04:05:32;;;;;;;4.63;2.50;;;;;;;1.58;94.03;98394.44;5009979;28;20030;-73
2022/04/19 04:07:58;;;;;;;3.75;2.45;;;;;;;1.64;93.88;98396.47;5001561;28;20491;-72
2022/04/19 04:10:24;;;;;;;4.50;2.38;;;;;;;1.61;94.13;98382.63;5010382;28;20049;-72
2022/04/19 04:12:49;;;;;;;3.50;2.35;;;;;;;1.63;93.23;98372.66;5011262;28;20372;-73
2022/04/19 04:15:15;;;;;;;4.25;2.90;;;;;;;1.72;93.35;98396.50;5009691;28;20495;-68
2022/04/19 04:17:40;;;;;;;5.07;2.53;;;;;;;1.74;93.12;98401.69;5009482;28;20457;-68
2022/04/19 04:20:06;;;;;;;3.40;2.50;;;;;;;1.70;93.40;98405.66;5010608;28;20037;-72
2022/04/19 04:22:32;;;;;;;5.57;2.33;;;;;;;1.49;93.73;98372.22;5012868;28;20037;-73
2022/04/19 04:24:57;;;;;;;3.65;2.17;;;;;;;1.74;94.42;98410.53;5011376;28;20487;-73
2022/04/19 04:27:22;;;;;;;3.55;2.30;;;;;;;1.65;94.79;98383.97;5009172;28;20021;-72
2022/04/19 04:29:48;;;;;;;6.93;2.80;;;;;;;1.48;95.14;98348.38;5005042;28;20033;-73
2022/04/19 04:32:13;;;;;;;4.53;2.85;;;;;;;1.86;95.52;98410.25;5009848;28;20214;-75
2022/04/19 04:34:38;;;;;;;5.13;2.83;;;;;;;1.89;94.94;98401.97;5011158;28;20463;-73
2022/04/19 04:37:04;;;;;;;4.63;2.30;;;;;;;1.88;94.24;98376.28;5013731;28;20034;-73
2022/04/19 04:39:29;;;;;;;3.88;2.28;;;;;;;2.04;93.35;98380.84;5014346;28;20040;-74
2022/04/19 04:41:54;;;;;;;4.32;2.38;;;;;;;2.15;91.52;98393.94;5007790;28;20120;-73
2022/04/19 04:44:19;;;;;;;6.55;2.95;;;;;;;2.36;91.26;98401.53;5011520;28;20057;-74
2022/04/19 04:49:39;;;;;;;5.25;2.72;;;;;;;2.21;89.98;98385.28;5009984;28;20039;-72
2022/04/19 04:52:13;;;;;;;6.55;3.85;;;;;;;2.44;90.18;98414.03;5010760;28;20037;-74
2022/04/19 04:54:40;;;;;;;9.55;4.65;;;;;;;2.57;89.22;98414.44;5000556;28;20528;-74
2022/04/19 04:57:06;;;;;;;7.60;4.85;;;;;;;2.46;88.76;98402.19;5011256;28;20052;-74
2022/04/19 04:59:32;;;;;;;6.10;4.50;;;;;;;2.60;88.83;98414.13;5010310;28;20403;-74
2022/04/19 05:01:58;;;;;;;9.18;4.72;;;;;;;2.64;86.68;98416.28;5013241;28;20499;-74
2022/04/19 05:04:24;;;;;;;7.03;3.55;;;;;;;2.67;86.93;98398.25;5012639;28;20030;-75
2022/04/19 05:06:49;;;;;;;6.55;2.88;;;;;;;2.77;86.63;98399.78;5012692;28;20061;-75
2022/04/19 05:09:15;;;;;;;4.15;2.60;;;;;;;3.24;86.22;98409.88;5008793;28;20037;-70
2022/04/19 05:11:40;;;;;;;18.13;5.25;;;;;;;3.37;84.75;98416.56;5008169;28;20038;-63
2022/04/19 05:14:07;;;;;;;5.05;2.70;;;;;;;3.43;83.96;98387.34;5005329;28;20029;-71
2022/04/19 05:16:34;;;;;;;7.38;3.00;;;;;;;3.76;81.72;98406.00;5012313;28;20032;-71
2022/04/19 05:18:59;;;;;;;4.53;2.60;;;;;;;3.87;82.33;98394.13;5011816;28;20038;-71
2022/04/19 05:21:25;;;;;;;6.55;3.10;;;;;;;3.97;80.25;98402.78;5014260;28;20087;-72
2022/04/19 05:23:50;;;;;;;4.70;2.60;;;;;;;4.14;78.38;98393.72;5009190;28;20021;-72
2022/04/19 05:26:16;;;;;;;4.97;2.42;;;;;;;4.22;78.22;98367.91;5011403;28;20376;-72
2022/04/19 05:28:41;;;;;;;7.00;2.45;;;;;;;4.47;77.75;98406.97;5012077;28;20110;-70
2022/04/19 05:31:06;;;;;;;6.70;2.75;;;;;;;4.50;76.93;98398.56;5010091;28;20120;-71
2022/04/19 05:33:32;;;;;;;4.57;2.63;;;;;;;4.83;77.33;98406.47;5004596;28;20100;-72
2022/04/19 05:35:57;;;;;;;5.85;3.72;;;;;;;4.88;76.16;98382.66;5010892;28;20564;-72
2022/04/19 05:38:22;;;;;;;3.90;2.42;;;;;;;5.35;76.38;98413.81;5008670;28;20060;-66
2022/04/19 05:40:48;;;;;;;8.65;3.00;;;;;;;5.43;74.23;98411.06;5005901;28;20030;-71
2022/04/19 05:43:14;;;;;;;7.28;3.63;;;;;;;5.56;75.29;98407.78;5011305;28;20041;-71
2022/04/19 05:45:39;;;;;;;6.13;3.00;;;;;;;5.70;75.32;98401.59;5002420;28;20045;-72
2022/04/19 05:48:05;;;;;;;4.63;2.45;;;;;;;5.80;73.81;98379.88;5010334;28;20030;-70
2022/04/19 05:50:30;;;;;;;5.05;2.45;;;;;;;6.38;72.03;98412.34;5005510;28;20038;-68
2022/04/19 05:52:56;;;;;;;7.25;3.00;;;;;;;6.76;70.05;98415.72;5012064;28;20464;-69
2022/04/19 05:55:21;;;;;;;3.58;2.70;;;;;;;7.53;66.83;98413.41;5012129;28;20030;-68
2022/04/19 05:57:47;;;;;;;4.20;2.53;;;;;;;9.93;60.31;98396.38;5008587;28;20030;-67
2022/04/19 06:00:13;;;;;;;8.18;2.95;;;;;;;11.84;53.42;98401.16;5012044;28;20438;-68
2022/04/19 06:05:23;;;;;;;5.38;2.65;;;;;;;15.33;42.35;98382.69;5008501;28;20539;-69
2022/04/19 06:07:48;;;;;;;3.90;2.47;;;;;;;15.95;40.58;98391.94;5005223;28;20029;-69
2022/04/19 06:10:14;;;;;;;5.05;2.40;;;;;;;16.42;39.32;98403.28;5006078;28;20033;-69
2022/04/19 06:12:40;;;;;;;7.18;2.13;;;;;;;17.44;37.27;98398.28;5009628;28;20037;-69
2022/04/19 06:15:06;;;;;;;10.57;2.90;;;;;;;18.19;35.47;98390.22;5010235;28;20034;-70
2022/04/19 06:17:32;;;;;;;4.18;2.63;;;;;;;16.81;37.24;98386.91;5011256;28;20105;-69
2022/04/19 06:20:02;;;;;;;5.78;2.20;;;;;;;16.83;38.21;98406.63;5008722;28;20041;-69
2022/04/19 06:22:27;;;;;;;5.22;2.25;;;;;;;17.42;36.19;98405.09;5010046;28;20442;-70
2022/04/19 06:24:56;;;;;;;5.70;2.13;;;;;;;17.96;36.18;98394.16;5009988;28;20030;-69
2022/04/19 06:27:22;;;;;;;3.42;1.75;;;;;;;17.94;35.91;98377.97;5011659;28;20049;-69
2022/04/19 06:29:47;;;;;;;4.88;2.60;;;;;;;18.39;35.44;98397.72;5010924;28;20442;-69
2022/04/19 06:32:13;;;;;;;5.03;2.30;;;;;;;19.73;33.75;98394.47;5007537;28;20025;-70
2022/04/19 06:34:39;;;;;;;2.78;1.98;;;;;;;20.37;31.55;98371.09;5010685;28;20026;-69
2022/04/19 06:37:05;;;;;;;3.03;1.98;;;;;;;19.89;31.88;98393.38;5014877;28;20030;-69
2022/04/19 06:39:30;;;;;;;3.22;2.05;;;;;;;20.96;30.63;98372.31;5011763;28;20041;-70
2022/04/19 06:41:56;;;;;;;4.40;2.28;;;;;;;21.99;28.46;98369.75;5012605;28;20022;-69
2022/04/19 06:44:21;;;;;;;5.00;2.55;;;;;;;23.09;27.38;98379.09;5013526;28;20458;-70
2022/04/19 06:46:49;;;;;;;4.25;2.40;;;;;;;22.98;27.04;98388.63;5015236;28;20061;-69
2022/04/19 06:49:14;;;;;;;6.15;2.70;;;;;;;24.44;26.15;98369.31;5013626;28;20057;-72
2022/04/19 06:51:40;;;;;;;2.72;2.10;;;;;;;23.12;28.37;98372.16;5014502;28;20497;-72
2022/04/19 06:54:06;;;;;;;4.60;2.35;;;;;;;23.78;26.81;98376.75;5012732;28;20028;-66
2022/04/19 06:56:32;;;;;;;2.97;2.22;;;;;;;25.05;25.29;98383.06;5012790;28;20049;-66
2022/04/19 06:58:57;;;;;;;5.22;2.55;;;;;;;25.27;24.51;98374.03;5012712;28;20058;-66
2022/04/19 07:01:25;;;;;;;5.65;2.60;;;;;;;25.76;23.09;98381.50;5013395;28;20033;-66
2022/04/19 07:03:51;;;;;;;3.10;2.25;;;;;;;26.41;22.49;98371.84;5010469;28;20100;-64
2022/04/19 07:06:17;;;;;;;4.70;2.17;;;;;;;26.56;22.57;98380.91;5014313;28;20114;-64
2022/04/19 07:08:42;;;;;;;4.45;2.20;;;;;;;25.51;23.18;98373.78;5013340;28;20061;-64
2022/04/19 07:11:08;;;;;;;3.88;1.70;;;;;;;24.01;24.61;98385.25;5013211;28;20026;-64
2022/04/19 07:13:33;;;;;;;3.08;2.22;;;;;;;24.91;24.33;98383.06;5007084;28;20025;-69
2022/04/19 07:15:59;;;;;;;3.75;2.60;;;;;;;24.65;24.59;98379.97;5013320;28;20029;-67
2022/04/19 07:18:24;;;;;;;5.72;2.45;;;;;;;25.25;23.83;98374.34;5009971;28;20520;-64
2022/04/19 07:26:38;;;;;;;5.45;2.30;;;;;;;26.17;23.11;98374.97;5013857;28;20167;-71
2022/04/19 07:29:04;;;;;;;7.05;2.20;;;;;;;27.04;22.07;98358.75;5014366;28;20026;-69
2022/04/19 07:31:31;;;;;;;6.90;2.00;;;;;;;24.87;24.41;98359.91;5015378;28;20044;-70
2022/04/19 07:33:56;;;;;;;3.95;2.38;;;;;;;27.01;21.79;98369.66;5010535;28;20028;-70
2022/04/19 07:36:21;;;;;;;4.15;2.33;;;;;;;25.82;23.04;98361.97;5015105;28;20021;-69
2022/04/19 07:38:47;;;;;;;5.25;2.20;;;;;;;25.97;23.08;98367.16;5023203;28;20486;-70
2022/04/19 07:41:12;;;;;;;4.03;2.10;;;;;;;26.64;22.68;98371.81;5011553;28;20046;-70
2022/04/19 07:43:38;;;;;;;3.13;2.05;;;;;;;26.91;23.09;98356.91;5008093;28;20490;-71
2022/04/19 07:46:04;;;;;;;3.63;2.13;;;;;;;27.39;21.91;98363.56;5012141;28;20527;-71
2022/04/19 07:48:30;;;;;;;4.18;2.20;;;;;;;26.79;21.66;98370.56;5012493;28;20113;-71
2022/04/19 07:50:56;;;;;;;4.40;2.30;;;;;;;27.06;21.09;98356.47;5013454;28;20064;-71
2022/04/19 07:53:22;;;;;;;4.65;2.55;;;;;;;26.41;22.55;98357.97;5011399;28;20387;-70
2022/04/19 07:55:48;;;;;;;3.53;2.03;;;;;;;27.35;21.64;98354.25;5013002;28;20100;-68
2022/04/19 07:58:13;;;;;;;3.28;2.35;;;;;;;27.19;22.50;98353.88;5010778;28;20488;-69
2022/04/19 08:00:39;;;;;;;4.30;2.28;;;;;;;28.04;21.19;98354.28;5011500;28;20060;-68
2022/04/19 08:03:04;;;;;;;4.20;2.50;;;;;;;28.31;21.19;98352.25;5011459;28;20030;-68
2022/04/19 08:05:29;;;;;;;3.30;2.50;;;;;;;28.31;20.56;98352.25;5012371;28;20029;-68
2022/04/19 08:07:57;;;;;;;3.38;2.30;;;;;;;28.84;20.53;98357.28;5013098;28;20025;-69
2022/04/19 08:10:22;;;;;;;4.75;2.60;;;;;;;29.03;20.19;98356.91;5013337;28;20030;-68
2022/04/19 08:12:48;;;;;;;3.72;2.22;;;;;;;28.73;20.85;98358.03;5010167;28;20030;-69
2022/04/19 08:15:13;;;;;;;2.88;2.10;;;;;;;28.28;20.54;98339.00;5012608;28;20026;-67
2022/04/19 08:17:39;;;;;;;4.55;2.33;;;;;;;28.50;20.90;98355.47;5010179;28;20034;-68
2022/04/19 08:20:05;;;;;;;3.78;2.30;;;;;;;28.60;19.94;98324.50;5009910;28;20038;-66
2022/04/19 08:22:31;;;;;;;3.40;2.22;;;;;;;29.40;20.10;98340.47;5010885;28;20083;-67
2022/04/19 08:24:56;;;;;;;3.83;2.78;;;;;;;29.82;19.02;98336.88;5040063;23;20123;-73
2022/04/19 08:27:22;;;;;;;3.10;2.55;;;;;;;29.83;18.59;98336.50;5027707;28;20091;-70
2022/04/19 08:29:48;;;;;;;3.88;2.55;;;;;;;28.93;19.45;98326.63;5021426;28;20044;-73
2022/04/19 08:32:13;;;;;;;4.47;2.80;;;;;;;28.21;19.80;98344.25;5031084;28;20482;-73
2022/04/19 08:34:39;;;;;;;4.78;2.53;;;;;;;29.70;19.83;98324.50;5023007;28;20025;-71
2022/04/19 08:37:05;;;;;;;3.58;2.60;;;;;;;28.89;19.13;98342.38;5022876;28;20025;-72
2022/04/19 08:39:30;;;;;;;4.68;2.95;;;;;;;29.74;18.61;98329.38;5029837;28;20534;-71
2022/04/19 08:41:56;;;;;;;6.18;2.72;;;;;;;28.18;20.20;98334.59;5028606;28;20075;-72
2022/04/19 08:44:21;;;;;;;26.15;8.02;;;;;;;30.23;19.52;98327.59;5032259;28;20025;-71
2022/04/19 08:46:47;;;;;;;5.28;3.28;;;;;;;29.32;19.13;98323.78;5033194;28;20059;-72
2022/04/19 08:49:14;;;;;;;6.50;3.08;;;;;;;29.96;19.20;98317.03;5027591;28;20036;-71
2022/04/19 08:51:40;;;;;;;10.23;4.40;;;;;;;29.53;19.18;98330.19;5029077;28;20028;-72
2022/04/19 08:59:37;;;;;;;5.43;3.33;;;;;;;31.39;17.95;98308.69;5032943;28;20044;-72
2022/04/19 09:02:05;;;;;;;5.32;3.65;;;;;;;29.53;18.06;98310.69;5034030;28;20029;-72
2022/04/19 09:04:30;;;;;;;4.85;3.05;;;;;;;31.02;17.99;98305.09;5034156;28;20025;-72
2022/04/19 09:06:57;;;;;;;3.58;2.70;;;;;;;32.09;17.36;98305.53;5034420;28;20022;-72
2022/04/19 09:09:25;;;;;;;6.35;3.00;;;;;;;31.36;17.73;98305.75;5031445;28;20120;-72
2022/04/19 09:11:52;;;;;;;4.65;2.60;;;;;;;29.66;19.07;98315.19;5033262;28;20029;-72
2022/04/19 09:14:18;;;;;;;5.75;2.92;;;;;;;28.19;20.66;98320.38;5035641;28;20121;-72
2022/04/19 09:16:44;;;;;;;3.05;2.35;;;;;;;28.04;20.98;98318.13;5039576;28;20033;-72
2022/04/19 09:19:09;;;;;;;3.40;2.83;;;;;;;27.57;21.77;98309.66;5033096;28;20099;-72
2022/04/19 09:21:40;;;;;;;4.75;3.53;;;;;;;26.48;22.34;98309.53;5032173;28;20442;-71
2022/04/19 09:24:26;;;;;;;4.32;3.08;;;;;;;24.41;25.20;98319.28;5029546;28;20072;-71
2022/04/19 09:26:52;;;;;;;6.43;3.40;;;;;;;24.06;25.18;98308.59;5020551;28;20057;-76
2022/04/19 09:29:23;;;;;;;7.20;3.72;;;;;;;25.66;24.22;98298.63;5027664;28;20087;-77
2022/04/19 09:31:52;;;;;;;6.53;3.20;;;;;;;27.61;21.33;98305.03;5032837;28;20021;-76
2022/04/19 09:34:34;;;;;;;5.05;3.30;;;;;;;29.16;19.04;98295.72;5030453;28;20534;-76
2022/04/19 09:37:10;;;;;;;3.90;2.97;;;;;;;31.15;18.65;98300.31;5032868;28;20030;-71
2022/04/19 09:39:37;;;;;;;5.00;3.00;;;;;;;30.88;17.30;98302.69;5029102;28;20017;-72
2022/04/19 09:42:08;;;;;;;5.25;3.22;;;;;;;30.48;18.44;98294.97;5026538;28;20036;-71
2022/04/19 09:44:42;;;;;;;4.03;3.05;;;;;;;30.88;18.11;98293.50;5024591;28;20036;-71
2022/04/19 09:47:12;;;;;;;4.82;3.47;;;;;;;31.20;18.49;98295.31;5029909;28;20453;-71
2022/04/19 09:50:03;;;;;;;5.78;3.40;;;;;;;30.15;19.37;98295.81;5031791;28;20018;-71
2022/04/19 09:52:29;;;;;;;6.13;3.60;;;;;;;30.80;18.68;98293.22;5029020;28;20483;-71
2022/04/19 09:55:02;;;;;;;4.00;3.13;;;;;;;32.24;17.84;98286.31;5026298;28;20037;-71
2022/04/19 09:57:33;;;;;;;5.85;3.25;;;;;;;31.15;16.92;98287.19;5026213;28;20029;-72
2022/04/19 09:59:59;;;;;;;4.55;3.03;;;;;;;32.08;16.37;98287.09;5023582;28;20248;-71
2022/04/19 10:08:11;;;;;;;5.07;3.40;;;;;;;32.59;16.33;98285.59;5029193;28;20075;-71
2022/04/19 10:10:37;;;;;;;5.95;3.75;;;;;;;31.38;16.39;98283.88;5027521;28;20025;-72
2022/04/19 10:13:04;;;;;;;4.75;3.22;;;;;;;32.88;16.23;98285.13;5033669;28;20033;-71
2022/04/19 10:15:33;;;;;;;7.40;3.65;;;;;;;32.21;16.89;98273.84;5031414;28;20037;-72
2022/04/19 10:17:59;;;;;;;6.63;3.45;;;;;;;31.67;16.39;98286.31;5032750;28;20029;-71
2022/04/19 10:20:31;;;;;;;4.75;3.45;;;;;;;31.31;16.64;98275.25;5027072;28;20645;-71
2022/04/19 10:23:01;;;;;;;4.90;3.67;;;;;;;31.72;15.95;98265.69;5021313;28;20029;-72
2022/04/19 10:25:43;;;;;;;6.22;3.50;;;;;;;31.58;16.28;98271.69;5020300;28;20034;-71
2022/04/19 10:28:09;;;;;;;4.38;3.50;;;;;;;31.27;15.98;98263.16;5030796;28;20543;-71
2022/04/19 10:30:36;;;;;;;5.43;3.72;;;;;;;31.48;16.44;98272.19;5027725;28;20037;-72
2022/04/19 10:33:21;;;;;;;5.70;3.63;;;;;;;30.79;16.16;98260.88;5026678;28;20033;-71
2022/04/19 10:36:10;;;;;;;6.43;3.97;;;;;;;30.84;16.74;98265.47;5021734;28;20033;-71
2022/04/19 10:38:35;;;;;;;4.25;3.75;;;;;;;31.23;16.75;98258.28;5031457;28;20026;-70
2022/04/19 10:41:00;;;;;;;4.85;3.40;;;;;;;31.80;16.34;98259.09;5030568;28;20037;-70
2022/04/19 10:43:27;;;;;;;4.80;3.92;;;;;;;32.30;15.46;98254.06;5030305;28;20422;-70
2022/04/19 10:45:53;;;;;;;5.47;3.80;;;;;;;30.52;17.09;98253.19;5022767;28;20029;-70
2022/04/19 10:48:18;;;;;;;6.25;3.90;;;;;;;30.72;17.82;98255.06;5031283;28;20083;-70
2022/04/19 10:50:51;;;;;;;6.70;3.90;;;;;;;31.40;17.05;98248.81;5028920;28;20029;-71
2022/04/19 10:53:16;;;;;;;5.15;3.88;;;;;;;31.32;16.65;98248.94;5029028;28;20821;-70
2022/04/19 10:55:57;;;;;;;4.75;3.60;;;;;;;32.62;16.08;98242.88;5031311;28;20045;-70
2022/04/19 10:58:41;;;;;;;6.63;3.88;;;;;;;31.13;16.90;98247.59;5027926;28;20068;-72
2022/04/19 11:01:26;;;;;;;5.35;3.35;;;;;;;32.35;16.22;98245.38;5028556;28;20028;-71
2022/04/19 11:03:52;;;;;;;4.30;3.50;;;;;;;32.68;15.97;98241.44;5033422;28;20025;-72
2022/04/19 11:06:40;;;;;;;4.72;3.67;;;;;;;32.19;16.41;98239.78;5030979;28;20061;-72
2022/04/19 11:09:23;;;;;;;6.07;4.03;;;;;;;31.12;16.05;98231.16;5031804;28;20567;-71
2022/04/19 11:11:50;;;;;;;9.05;3.60;;;;;;;31.85;16.41;98224.47;5031307;28;20030;-71
2022/04/19 11:14:34;;;;;;;4.65;3.45;;;;;;;31.14;16.99;98221.25;5023708;28;20100;-71
2022/04/19 11:17:20;;;;;;;4.43;3.38;;;;;;;31.79;16.53;98228.72;5029770;28;20017;-71
2022/04/19 11:19:53;;;;;;;4.95;3.00;;;;;;;31.70;16.74;98216.88;5026791;28;20063;-72
2022/04/19 11:22:29;;;;;;;4.18;3.10;;;;;;;31.11;16.24;98219.19;5025318;28;20028;-71
2022/04/19 11:25:06;;;;;;;4.95;3.13;;;;;;;30.50;16.94;98213.69;5030191;28;20105;-71
2022/04/19 11:27:53;;;;;;;5.28;3.70;;;;;;;30.23;18.67;98210.41;5029331;28;20545;-71
2022/04/19 11:30:19;;;;;;;5.13;3.60;;;;;;;31.41;17.74;98216.06;5023573;28;20522;-71
2022/04/19 11:32:50;;;;;;;4.38;3.42;;;;;;;31.31;17.44;98213.75;5023265;28;20040;-71
2022/04/19 11:35:16;;;;;;;6.00;3.42;;;;;;;30.99;17.78;98202.44;5033718;28;20036;-71
2022/04/19 11:37:43;;;;;;;4.38;2.95;;;;;;;31.16;17.21;98196.56;5034051;28;20033;-71
2022/04/19 11:48:53;;;;;;;3.88;2.65;;;;;;;31.05;17.89;98181.50;5029942;28;20029;-70
2022/04/19 11:51:20;;;;;;;2.63;2.28;;;;;;;31.94;17.61;98197.19;5028308;28;20411;-75
2022/04/19 11:53:46;;;;;;;4.60;2.55;;;;;;;30.93;17.85;98193.50;5034681;28;20042;-74
2022/04/19 11:56:12;;;;;;;4.57;2.40;;;;;;;30.65;18.57;98182.22;5031069;28;20060;-73
2022/04/19 11:58:41;;;;;;;4.15;3.17;;;;;;;28.91;17.36;98195.28;5032705;28;20475;-73
2022/04/19 12:01:09;;;;;;;4.90;2.28;;;;;;;29.08;18.44;98182.38;5031058;28;20036;-73
2022/04/19 12:03:36;;;;;;;3.13;2.15;;;;;;;30.22;17.80;98180.03;5024087;28;20057;-74
2022/04/19 12:06:12;;;;;;;3.63;2.88;;;;;;;29.55;17.60;98184.88;5026926;28;20045;-74
2022/04/19 12:08:41;;;;;;;3.90;2.30;;;;;;;30.94;18.57;98188.72;5025365;28;20026;-75
2022/04/19 12:11:36;;;;;;;2.50;2.05;;;;;;;31.21;16.65;98181.53;5031432;28;20033;-74
2022/04/19 12:14:03;;;;;;;2.90;1.90;;;;;;;31.51;15.89;98184.81;5021252;28;20120;-73
2022/04/19 12:16:37;;;;;;;3.55;2.05;;;;;;;31.96;15.50;98183.63;5031296;28;20029;-73